sensor_id;sensor_type;location;lat;lon;timestamp;P1;durP1;ratioP1;P2;durP2;ratioP2
22606;SDS011;11470;20.968;105.834;2023-05-29T00:02:44;21.98;;;13.13;;
22606;SDS011;11470;20.968;105.834;2023-05-29T00:07:50;19.98;;;13.75;;
22606;SDS011;11470;20.968;105.834;2023-05-29T00:12:56;25.05;;;13.98;;
22606;SDS011;11470;20.968;105.834;2023-05-29T00:18:01;22.75;;;13.45;;
22606;SDS011;11470;20.968;105.834;2023-05-29T00:23:07;20.20;;;12.55;;
22606;SDS011;11470;20.968;105.834;2023-05-29T00:28:13;16.23;;;10.38;;
22606;SDS011;11470;20.968;105.834;2023-05-29T00:33:19;19.67;;;8.98;;
22606;SDS011;11470;20.968;105.834;2023-05-29T00:38:24;20.33;;;9.27;;
22606;SDS011;11470;20.968;105.834;2023-05-29T00:43:30;21.90;;;10.63;;
22606;SDS011;11470;20.968;105.834;2023-05-29T00:48:38;17.45;;;11.13;;
22606;SDS011;11470;20.968;105.834;2023-05-29T00:53:45;15.50;;;10.52;;
22606;SDS011;11470;20.968;105.834;2023-05-29T00:58:55;21.48;;;11.10;;
22606;SDS011;11470;20.968;105.834;2023-05-29T01:04:01;20.35;;;10.77;;
22606;SDS011;11470;20.968;105.834;2023-05-29T01:09:16;20.63;;;9.93;;
22606;SDS011;11470;20.968;105.834;2023-05-29T01:25:46;19.33;;;10.57;;
22606;SDS011;11470;20.968;105.834;2023-05-29T01:31:20;16.80;;;10.25;;
22606;SDS011;11470;20.968;105.834;2023-05-29T01:36:31;23.98;;;10.98;;
22606;SDS011;11470;20.968;105.834;2023-05-29T01:41:37;26.75;;;12.70;;
22606;SDS011;11470;20.968;105.834;2023-05-29T01:46:43;31.75;;;13.80;;
22606;SDS011;11470;20.968;105.834;2023-05-29T01:51:49;22.77;;;13.10;;
22606;SDS011;11470;20.968;105.834;2023-05-29T01:56:55;16.77;;;9.85;;
22606;SDS011;11470;20.968;105.834;2023-05-29T02:02:07;18.38;;;10.93;;
22606;SDS011;11470;20.968;105.834;2023-05-29T02:07:13;21.95;;;11.52;;
22606;SDS011;11470;20.968;105.834;2023-05-29T02:12:19;19.60;;;10.98;;
22606;SDS011;11470;20.968;105.834;2023-05-29T02:17:25;23.60;;;12.70;;
22606;SDS011;11470;20.968;105.834;2023-05-29T02:22:31;18.25;;;11.32;;
22606;SDS011;11470;20.968;105.834;2023-05-29T02:32:41;20.60;;;13.20;;
22606;SDS011;11470;20.968;105.834;2023-05-29T02:37:46;21.92;;;12.27;;
22606;SDS011;11470;20.968;105.834;2023-05-29T02:42:53;18.65;;;12.23;;
22606;SDS011;11470;20.968;105.834;2023-05-29T02:47:59;22.60;;;13.18;;
22606;SDS011;11470;20.968;105.834;2023-05-29T02:53:04;20.90;;;13.32;;
22606;SDS011;11470;20.968;105.834;2023-05-29T02:58:09;22.40;;;13.40;;
22606;SDS011;11470;20.968;105.834;2023-05-29T03:03:23;17.73;;;13.65;;
22606;SDS011;11470;20.968;105.834;2023-05-29T03:08:32;24.23;;;14.07;;
22606;SDS011;11470;20.968;105.834;2023-05-29T03:13:39;19.83;;;12.88;;
22606;SDS011;11470;20.968;105.834;2023-05-29T03:18:46;21.35;;;13.23;;
22606;SDS011;11470;20.968;105.834;2023-05-29T03:23:54;16.75;;;11.88;;
22606;SDS011;11470;20.968;105.834;2023-05-29T03:28:59;20.35;;;13.38;;
22606;SDS011;11470;20.968;105.834;2023-05-29T03:34:07;18.10;;;12.57;;
22606;SDS011;11470;20.968;105.834;2023-05-29T03:39:22;16.83;;;12.73;;
22606;SDS011;11470;20.968;105.834;2023-05-29T03:44:32;23.30;;;14.13;;
22606;SDS011;11470;20.968;105.834;2023-05-29T03:49:45;19.30;;;14.02;;
22606;SDS011;11470;20.968;105.834;2023-05-29T03:54:52;18.63;;;13.32;;
22606;SDS011;11470;20.968;105.834;2023-05-29T03:59:58;16.88;;;12.82;;
22606;SDS011;11470;20.968;105.834;2023-05-29T04:05:14;19.85;;;13.45;;
22606;SDS011;11470;20.968;105.834;2023-05-29T04:10:20;18.10;;;13.82;;
22606;SDS011;11470;20.968;105.834;2023-05-29T04:15:27;13.15;;;7.93;;
22606;SDS011;11470;20.968;105.834;2023-05-29T04:20:34;19.02;;;13.32;;
22606;SDS011;11470;20.968;105.834;2023-05-29T04:25:40;20.13;;;13.55;;
22606;SDS011;11470;20.968;105.834;2023-05-29T04:30:45;19.30;;;14.00;;
22606;SDS011;11470;20.968;105.834;2023-05-29T04:35:53;19.65;;;14.48;;
22606;SDS011;11470;20.968;105.834;2023-05-29T04:40:59;20.45;;;14.27;;
22606;SDS011;11470;20.968;105.834;2023-05-29T04:46:05;18.33;;;11.98;;
22606;SDS011;11470;20.968;105.834;2023-05-29T04:51:15;6.07;;;4.43;;
22606;SDS011;11470;20.968;105.834;2023-05-29T04:56:21;19.15;;;13.48;;
22606;SDS011;11470;20.968;105.834;2023-05-29T05:01:26;18.23;;;13.07;;
22606;SDS011;11470;20.968;105.834;2023-05-29T05:06:33;19.27;;;13.40;;
22606;SDS011;11470;20.968;105.834;2023-05-29T05:11:38;24.85;;;16.25;;
22606;SDS011;11470;20.968;105.834;2023-05-29T05:16:44;18.58;;;13.57;;
22606;SDS011;11470;20.968;105.834;2023-05-29T05:21:53;18.88;;;14.98;;
22606;SDS011;11470;20.968;105.834;2023-05-29T05:32:14;23.08;;;15.57;;
22606;SDS011;11470;20.968;105.834;2023-05-29T05:37:30;22.02;;;16.27;;
22606;SDS011;11470;20.968;105.834;2023-05-29T05:42:39;22.30;;;16.40;;
22606;SDS011;11470;20.968;105.834;2023-05-29T05:47:48;21.35;;;16.25;;
22606;SDS011;11470;20.968;105.834;2023-05-29T05:52:58;20.02;;;15.43;;
22606;SDS011;11470;20.968;105.834;2023-05-29T05:58:04;27.15;;;16.88;;
22606;SDS011;11470;20.968;105.834;2023-05-29T06:03:10;20.20;;;15.73;;
22606;SDS011;11470;20.968;105.834;2023-05-29T06:08:32;20.15;;;13.50;;
22606;SDS011;11470;20.968;105.834;2023-05-29T06:13:47;19.80;;;15.53;;
22606;SDS011;11470;20.968;105.834;2023-05-29T06:18:57;23.75;;;16.38;;
22606;SDS011;11470;20.968;105.834;2023-05-29T06:24:06;18.63;;;13.07;;
22606;SDS011;11470;20.968;105.834;2023-05-29T06:29:11;23.20;;;16.33;;
22606;SDS011;11470;20.968;105.834;2023-05-29T06:39:22;23.07;;;16.00;;
22606;SDS011;11470;20.968;105.834;2023-05-29T06:44:29;19.20;;;15.63;;
22606;SDS011;11470;20.968;105.834;2023-05-29T06:49:35;19.30;;;13.38;;
22606;SDS011;11470;20.968;105.834;2023-05-29T06:54:41;15.50;;;11.75;;
22606;SDS011;11470;20.968;105.834;2023-05-29T06:59:47;16.92;;;13.35;;
22606;SDS011;11470;20.968;105.834;2023-05-29T07:04:53;17.52;;;12.95;;
22606;SDS011;11470;20.968;105.834;2023-05-29T07:10:00;17.00;;;13.65;;
22606;SDS011;11470;20.968;105.834;2023-05-29T07:15:06;15.85;;;9.90;;
22606;SDS011;11470;20.968;105.834;2023-05-29T07:20:19;17.85;;;12.32;;
22606;SDS011;11470;20.968;105.834;2023-05-29T07:25:48;17.08;;;10.90;;
22606;SDS011;11470;20.968;105.834;2023-05-29T07:30:58;21.17;;;13.98;;
22606;SDS011;11470;20.968;105.834;2023-05-29T07:36:12;14.43;;;12.55;;
22606;SDS011;11470;20.968;105.834;2023-05-29T07:41:23;17.52;;;13.98;;
22606;SDS011;11470;20.968;105.834;2023-05-29T07:46:31;18.90;;;12.52;;
22606;SDS011;11470;20.968;105.834;2023-05-29T07:52:03;11.00;;;8.88;;
22606;SDS011;11470;20.968;105.834;2023-05-29T07:57:10;17.10;;;13.02;;
22606;SDS011;11470;20.968;105.834;2023-05-29T08:02:17;14.40;;;11.27;;
22606;SDS011;11470;20.968;105.834;2023-05-29T08:07:49;15.40;;;11.63;;
22606;SDS011;11470;20.968;105.834;2023-05-29T08:12:55;12.10;;;10.80;;
22606;SDS011;11470;20.968;105.834;2023-05-29T08:18:01;21.00;;;13.02;;
22606;SDS011;11470;20.968;105.834;2023-05-29T08:23:11;14.55;;;8.75;;
22606;SDS011;11470;20.968;105.834;2023-05-29T08:28:16;17.30;;;10.38;;
22606;SDS011;11470;20.968;105.834;2023-05-29T08:33:22;13.25;;;10.63;;
22606;SDS011;11470;20.968;105.834;2023-05-29T08:38:30;15.02;;;12.38;;
22606;SDS011;11470;20.968;105.834;2023-05-29T08:43:36;18.58;;;11.98;;
22606;SDS011;11470;20.968;105.834;2023-05-29T08:48:47;16.55;;;10.52;;
22606;SDS011;11470;20.968;105.834;2023-05-29T08:54:03;15.93;;;11.77;;
22606;SDS011;11470;20.968;105.834;2023-05-29T08:59:12;13.80;;;12.27;;
22606;SDS011;11470;20.968;105.834;2023-05-29T09:04:21;11.95;;;10.63;;
22606;SDS011;11470;20.968;105.834;2023-05-29T09:09:30;17.05;;;12.68;;
22606;SDS011;11470;20.968;105.834;2023-05-29T09:14:37;16.50;;;11.75;;
22606;SDS011;11470;20.968;105.834;2023-05-29T09:19:44;14.25;;;11.32;;
22606;SDS011;11470;20.968;105.834;2023-05-29T09:24:53;19.77;;;12.32;;
22606;SDS011;11470;20.968;105.834;2023-05-29T09:29:59;19.55;;;12.15;;
22606;SDS011;11470;20.968;105.834;2023-05-29T09:35:05;16.30;;;11.43;;
22606;SDS011;11470;20.968;105.834;2023-05-29T09:40:13;17.65;;;12.32;;
22606;SDS011;11470;20.968;105.834;2023-05-29T09:45:19;21.67;;;11.88;;
22606;SDS011;11470;20.968;105.834;2023-05-29T09:50:26;18.30;;;12.75;;
22606;SDS011;11470;20.968;105.834;2023-05-29T09:55:33;23.70;;;14.52;;
22606;SDS011;11470;20.968;105.834;2023-05-29T10:00:41;24.40;;;14.68;;
22606;SDS011;11470;20.968;105.834;2023-05-29T10:05:48;24.42;;;13.93;;
22606;SDS011;11470;20.968;105.834;2023-05-29T10:10:58;20.52;;;13.52;;
22606;SDS011;11470;20.968;105.834;2023-05-29T10:16:13;19.88;;;13.98;;
22606;SDS011;11470;20.968;105.834;2023-05-29T10:21:19;21.15;;;14.02;;
22606;SDS011;11470;20.968;105.834;2023-05-29T10:26:26;23.60;;;15.40;;
22606;SDS011;11470;20.968;105.834;2023-05-29T10:53:15;21.92;;;15.48;;
22606;SDS011;11470;20.968;105.834;2023-05-29T10:58:22;25.10;;;16.38;;
22606;SDS011;11470;20.968;105.834;2023-05-29T11:03:32;21.60;;;14.15;;
22606;SDS011;11470;20.968;105.834;2023-05-29T11:13:52;29.88;;;19.17;;
22606;SDS011;11470;20.968;105.834;2023-05-29T11:19:03;41.33;;;24.73;;
22606;SDS011;11470;20.968;105.834;2023-05-29T11:24:21;33.20;;;21.20;;
22606;SDS011;11470;20.968;105.834;2023-05-29T11:29:28;37.58;;;22.63;;
22606;SDS011;11470;20.968;105.834;2023-05-29T11:34:34;23.35;;;17.40;;
22606;SDS011;11470;20.968;105.834;2023-05-29T11:39:45;46.30;;;28.20;;
22606;SDS011;11470;20.968;105.834;2023-05-29T11:44:50;51.10;;;32.67;;
22606;SDS011;11470;20.968;105.834;2023-05-29T11:49:57;34.20;;;22.48;;
22606;SDS011;11470;20.968;105.834;2023-05-29T11:55:06;43.50;;;28.52;;
22606;SDS011;11470;20.968;105.834;2023-05-29T12:00:15;37.28;;;26.00;;
22606;SDS011;11470;20.968;105.834;2023-05-29T12:05:26;38.33;;;24.02;;
22606;SDS011;11470;20.968;105.834;2023-05-29T12:10:35;18.25;;;8.45;;
22606;SDS011;11470;20.968;105.834;2023-05-29T12:15:43;29.27;;;17.90;;
22606;SDS011;11470;20.968;105.834;2023-05-29T12:20:50;37.67;;;22.55;;
22606;SDS011;11470;20.968;105.834;2023-05-29T12:26:00;35.05;;;23.92;;
22606;SDS011;11470;20.968;105.834;2023-05-29T12:31:09;29.77;;;17.08;;
22606;SDS011;11470;20.968;105.834;2023-05-29T12:36:20;35.47;;;20.67;;
22606;SDS011;11470;20.968;105.834;2023-05-29T12:41:33;26.52;;;15.07;;
22606;SDS011;11470;20.968;105.834;2023-05-29T12:46:41;35.47;;;22.75;;
22606;SDS011;11470;20.968;105.834;2023-05-29T12:51:48;27.63;;;16.30;;
22606;SDS011;11470;20.968;105.834;2023-05-29T12:56:53;32.63;;;19.60;;
22606;SDS011;11470;20.968;105.834;2023-05-29T13:02:00;24.50;;;12.25;;
22606;SDS011;11470;20.968;105.834;2023-05-29T13:07:05;35.03;;;19.27;;
22606;SDS011;11470;20.968;105.834;2023-05-29T13:12:12;41.83;;;21.98;;
22606;SDS011;11470;20.968;105.834;2023-05-29T13:17:17;21.08;;;11.68;;
22606;SDS011;11470;20.968;105.834;2023-05-29T13:22:23;24.65;;;13.38;;
22606;SDS011;11470;20.968;105.834;2023-05-29T13:27:34;39.38;;;20.65;;
22606;SDS011;11470;20.968;105.834;2023-05-29T13:32:42;35.22;;;20.70;;
22606;SDS011;11470;20.968;105.834;2023-05-29T13:37:48;37.58;;;19.13;;
22606;SDS011;11470;20.968;105.834;2023-05-29T13:42:54;28.05;;;12.90;;
22606;SDS011;11470;20.968;105.834;2023-05-29T13:48:00;31.67;;;14.48;;
22606;SDS011;11470;20.968;105.834;2023-05-29T13:53:06;28.50;;;12.55;;
22606;SDS011;11470;20.968;105.834;2023-05-29T13:58:11;32.13;;;15.63;;
22606;SDS011;11470;20.968;105.834;2023-05-29T14:03:17;25.25;;;11.85;;
22606;SDS011;11470;20.968;105.834;2023-05-29T14:08:25;28.52;;;13.43;;
22606;SDS011;11470;20.968;105.834;2023-05-29T14:13:31;34.53;;;15.68;;
22606;SDS011;11470;20.968;105.834;2023-05-29T14:18:39;30.48;;;15.38;;
22606;SDS011;11470;20.968;105.834;2023-05-29T14:23:46;36.83;;;22.20;;
22606;SDS011;11470;20.968;105.834;2023-05-29T14:28:51;36.17;;;19.35;;
22606;SDS011;11470;20.968;105.834;2023-05-29T14:34:15;39.97;;;19.55;;
22606;SDS011;11470;20.968;105.834;2023-05-29T14:39:20;30.00;;;16.73;;
22606;SDS011;11470;20.968;105.834;2023-05-29T14:44:27;34.88;;;20.23;;
22606;SDS011;11470;20.968;105.834;2023-05-29T14:49:32;33.78;;;17.58;;
22606;SDS011;11470;20.968;105.834;2023-05-29T14:54:39;16.05;;;8.40;;
22606;SDS011;11470;20.968;105.834;2023-05-29T14:59:45;37.10;;;20.40;;
22606;SDS011;11470;20.968;105.834;2023-05-29T15:04:51;26.65;;;12.93;;
22606;SDS011;11470;20.968;105.834;2023-05-29T15:10:00;30.40;;;16.13;;
22606;SDS011;11470;20.968;105.834;2023-05-29T15:15:08;32.65;;;17.27;;
22606;SDS011;11470;20.968;105.834;2023-05-29T15:20:20;32.85;;;17.33;;
22606;SDS011;11470;20.968;105.834;2023-05-29T15:25:48;26.35;;;14.90;;
22606;SDS011;11470;20.968;105.834;2023-05-29T15:30:54;29.13;;;14.38;;
22606;SDS011;11470;20.968;105.834;2023-05-29T15:36:00;31.90;;;16.83;;
22606;SDS011;11470;20.968;105.834;2023-05-29T15:41:07;22.25;;;12.43;;
22606;SDS011;11470;20.968;105.834;2023-05-29T15:46:13;27.52;;;13.60;;
22606;SDS011;11470;20.968;105.834;2023-05-29T15:51:22;25.58;;;13.68;;
22606;SDS011;11470;20.968;105.834;2023-05-29T15:56:40;26.90;;;13.68;;
22606;SDS011;11470;20.968;105.834;2023-05-29T16:01:46;23.92;;;13.32;;
22606;SDS011;11470;20.968;105.834;2023-05-29T16:06:52;20.67;;;9.57;;
22606;SDS011;11470;20.968;105.834;2023-05-29T16:11:58;24.85;;;14.48;;
22606;SDS011;11470;20.968;105.834;2023-05-29T16:17:03;19.63;;;9.10;;
22606;SDS011;11470;20.968;105.834;2023-05-29T16:22:10;27.60;;;13.05;;
22606;SDS011;11470;20.968;105.834;2023-05-29T16:27:15;27.73;;;14.23;;
22606;SDS011;11470;20.968;105.834;2023-05-29T16:32:22;22.33;;;12.05;;
22606;SDS011;11470;20.968;105.834;2023-05-29T16:37:29;17.88;;;7.10;;
22606;SDS011;11470;20.968;105.834;2023-05-29T16:42:35;23.63;;;13.52;;
22606;SDS011;11470;20.968;105.834;2023-05-29T16:47:44;22.42;;;11.82;;
22606;SDS011;11470;20.968;105.834;2023-05-29T16:52:53;26.75;;;12.65;;
22606;SDS011;11470;20.968;105.834;2023-05-29T16:58:00;20.92;;;12.27;;
22606;SDS011;11470;20.968;105.834;2023-05-29T17:03:06;28.05;;;12.75;;
22606;SDS011;11470;20.968;105.834;2023-05-29T17:08:11;25.05;;;13.73;;
22606;SDS011;11470;20.968;105.834;2023-05-29T17:13:17;23.90;;;14.02;;
22606;SDS011;11470;20.968;105.834;2023-05-29T17:18:23;23.23;;;14.85;;
22606;SDS011;11470;20.968;105.834;2023-05-29T17:23:31;23.55;;;14.05;;
22606;SDS011;11470;20.968;105.834;2023-05-29T17:28:36;19.13;;;12.00;;
22606;SDS011;11470;20.968;105.834;2023-05-29T17:33:42;20.20;;;12.00;;
22606;SDS011;11470;20.968;105.834;2023-05-29T17:38:48;21.35;;;12.98;;
22606;SDS011;11470;20.968;105.834;2023-05-29T17:43:56;20.42;;;13.25;;
22606;SDS011;11470;20.968;105.834;2023-05-29T17:49:08;21.48;;;12.73;;
22606;SDS011;11470;20.968;105.834;2023-05-29T17:59:19;29.48;;;15.63;;
22606;SDS011;11470;20.968;105.834;2023-05-29T18:04:25;25.15;;;14.32;;
22606;SDS011;11470;20.968;105.834;2023-05-29T18:09:30;27.13;;;14.43;;
22606;SDS011;11470;20.968;105.834;2023-05-29T18:14:36;31.08;;;17.20;;
22606;SDS011;11470;20.968;105.834;2023-05-29T18:19:42;23.83;;;14.73;;
22606;SDS011;11470;20.968;105.834;2023-05-29T18:24:48;27.27;;;16.98;;
22606;SDS011;11470;20.968;105.834;2023-05-29T18:29:56;30.58;;;18.23;;
22606;SDS011;11470;20.968;105.834;2023-05-29T18:35:07;27.75;;;14.98;;
22606;SDS011;11470;20.968;105.834;2023-05-29T18:40:12;24.30;;;12.68;;
22606;SDS011;11470;20.968;105.834;2023-05-29T18:45:22;36.20;;;18.20;;
22606;SDS011;11470;20.968;105.834;2023-05-29T18:50:27;33.40;;;17.02;;
22606;SDS011;11470;20.968;105.834;2023-05-29T18:55:33;36.15;;;19.10;;
22606;SDS011;11470;20.968;105.834;2023-05-29T19:00:38;35.00;;;19.52;;
22606;SDS011;11470;20.968;105.834;2023-05-29T19:05:45;32.95;;;17.85;;
22606;SDS011;11470;20.968;105.834;2023-05-29T19:10:50;30.52;;;18.17;;
22606;SDS011;11470;20.968;105.834;2023-05-29T19:15:58;30.13;;;17.30;;
22606;SDS011;11470;20.968;105.834;2023-05-29T19:21:06;31.17;;;19.48;;
22606;SDS011;11470;20.968;105.834;2023-05-29T19:26:12;30.13;;;17.77;;
22606;SDS011;11470;20.968;105.834;2023-05-29T19:36:23;33.13;;;20.13;;
22606;SDS011;11470;20.968;105.834;2023-05-29T19:41:29;31.02;;;19.17;;
22606;SDS011;11470;20.968;105.834;2023-05-29T19:46:35;37.63;;;20.33;;
22606;SDS011;11470;20.968;105.834;2023-05-29T19:51:41;31.35;;;19.83;;
22606;SDS011;11470;20.968;105.834;2023-05-29T19:56:47;32.35;;;19.98;;
22606;SDS011;11470;20.968;105.834;2023-05-29T20:01:52;28.52;;;18.50;;
22606;SDS011;11470;20.968;105.834;2023-05-29T20:06:58;29.55;;;18.40;;
22606;SDS011;11470;20.968;105.834;2023-05-29T20:12:06;25.95;;;17.83;;
22606;SDS011;11470;20.968;105.834;2023-05-29T20:17:14;27.08;;;17.35;;
22606;SDS011;11470;20.968;105.834;2023-05-29T20:22:20;27.52;;;17.40;;
22606;SDS011;11470;20.968;105.834;2023-05-29T20:27:25;27.77;;;18.17;;
22606;SDS011;11470;20.968;105.834;2023-05-29T20:32:31;30.50;;;19.17;;
22606;SDS011;11470;20.968;105.834;2023-05-29T20:37:36;26.50;;;16.92;;
22606;SDS011;11470;20.968;105.834;2023-05-29T20:42:45;34.13;;;18.30;;
22606;SDS011;11470;20.968;105.834;2023-05-29T20:47:51;29.15;;;19.20;;
22606;SDS011;11470;20.968;105.834;2023-05-29T20:58:01;28.33;;;16.37;;
22606;SDS011;11470;20.968;105.834;2023-05-29T21:03:08;33.45;;;18.90;;
22606;SDS011;11470;20.968;105.834;2023-05-29T21:08:14;31.60;;;19.85;;
22606;SDS011;11470;20.968;105.834;2023-05-29T21:13:22;29.70;;;17.98;;
22606;SDS011;11470;20.968;105.834;2023-05-29T21:18:27;28.52;;;18.17;;
22606;SDS011;11470;20.968;105.834;2023-05-29T21:28:41;32.67;;;17.80;;
22606;SDS011;11470;20.968;105.834;2023-05-29T21:33:48;38.05;;;23.02;;
22606;SDS011;11470;20.968;105.834;2023-05-29T21:38:54;30.35;;;19.88;;
22606;SDS011;11470;20.968;105.834;2023-05-29T21:49:04;36.20;;;21.50;;
22606;SDS011;11470;20.968;105.834;2023-05-29T21:54:10;28.65;;;17.83;;
22606;SDS011;11470;20.968;105.834;2023-05-29T21:59:18;33.17;;;19.67;;
22606;SDS011;11470;20.968;105.834;2023-05-29T22:04:24;32.55;;;19.38;;
22606;SDS011;11470;20.968;105.834;2023-05-29T22:09:29;36.78;;;18.80;;
22606;SDS011;11470;20.968;105.834;2023-05-29T22:14:38;30.75;;;18.77;;
22606;SDS011;11470;20.968;105.834;2023-05-29T22:19:44;36.00;;;20.52;;
22606;SDS011;11470;20.968;105.834;2023-05-29T22:29:55;39.00;;;19.70;;
22606;SDS011;11470;20.968;105.834;2023-05-29T22:35:01;32.72;;;19.67;;
22606;SDS011;11470;20.968;105.834;2023-05-29T22:40:06;35.65;;;18.77;;
22606;SDS011;11470;20.968;105.834;2023-05-29T22:45:17;39.00;;;19.98;;
22606;SDS011;11470;20.968;105.834;2023-05-29T22:50:23;31.52;;;18.05;;
22606;SDS011;11470;20.968;105.834;2023-05-29T22:55:28;24.83;;;15.00;;
22606;SDS011;11470;20.968;105.834;2023-05-29T23:00:34;30.45;;;16.55;;
22606;SDS011;11470;20.968;105.834;2023-05-29T23:05:41;29.05;;;17.42;;
22606;SDS011;11470;20.968;105.834;2023-05-29T23:10:47;34.08;;;18.40;;
22606;SDS011;11470;20.968;105.834;2023-05-29T23:15:53;29.70;;;17.13;;
22606;SDS011;11470;20.968;105.834;2023-05-29T23:20:59;31.50;;;18.02;;
22606;SDS011;11470;20.968;105.834;2023-05-29T23:26:04;31.98;;;17.08;;
22606;SDS011;11470;20.968;105.834;2023-05-29T23:31:10;29.98;;;16.73;;
22606;SDS011;11470;20.968;105.834;2023-05-29T23:36:15;30.55;;;17.35;;
22606;SDS011;11470;20.968;105.834;2023-05-29T23:41:21;30.27;;;17.50;;
22606;SDS011;11470;20.968;105.834;2023-05-29T23:46:26;30.98;;;18.55;;
22606;SDS011;11470;20.968;105.834;2023-05-29T23:51:33;31.83;;;18.40;;
22606;SDS011;11470;20.968;105.834;2023-05-29T23:56:38;26.33;;;15.65;;
